createdAt,value
2023-04-11T00:00:40.887Z,0
2023-04-11T00:01:40.929Z,0
2023-04-11T00:02:41.000Z,0
2023-04-11T00:03:41.085Z,0
2023-04-11T00:04:40.952Z,0
2023-04-11T00:05:40.941Z,0
2023-04-11T00:06:40.890Z,0
2023-04-11T00:07:40.893Z,0
2023-04-11T00:08:40.894Z,0
2023-04-11T00:09:40.904Z,0
2023-04-11T00:10:40.891Z,0
2023-04-11T00:11:40.898Z,0
2023-04-11T00:12:40.891Z,0
2023-04-11T00:13:40.887Z,0
2023-04-11T00:14:40.891Z,0
2023-04-11T00:15:40.887Z,0
2023-04-11T00:16:40.934Z,0
2023-04-11T00:17:40.930Z,0
2023-04-11T00:18:40.888Z,0
2023-04-11T00:19:40.915Z,0
2023-04-11T00:20:40.887Z,0
2023-04-11T00:21:40.915Z,0
2023-04-11T00:22:40.890Z,0
2023-04-11T00:23:40.890Z,0
2023-04-11T00:24:40.893Z,0
2023-04-11T00:25:40.890Z,0
2023-04-11T00:26:40.888Z,0
2023-04-11T00:27:40.891Z,0
2023-04-11T00:28:40.889Z,0
2023-04-11T00:29:40.892Z,0
2023-04-11T00:30:40.902Z,0
2023-04-11T00:31:40.910Z,0
2023-04-11T00:32:40.910Z,0
2023-04-11T00:33:41.101Z,0
2023-04-11T00:34:40.887Z,0
2023-04-11T00:35:40.925Z,0
2023-04-11T00:36:40.933Z,0
2023-04-11T00:37:40.962Z,0
2023-04-11T00:38:40.887Z,0
2023-04-11T00:39:40.888Z,0
2023-04-11T00:40:40.889Z,0
2023-04-11T00:41:40.888Z,0
2023-04-11T00:42:40.899Z,0
2023-04-11T00:43:40.925Z,0
2023-04-11T00:44:40.890Z,0
2023-04-11T00:45:41.045Z,0
2023-04-11T00:46:40.889Z,0
2023-04-11T00:47:40.911Z,0
2023-04-11T00:48:40.887Z,0
2023-04-11T00:49:40.899Z,0
2023-04-11T00:50:40.891Z,0
2023-04-11T00:51:40.890Z,0
2023-04-11T00:52:40.902Z,0
2023-04-11T00:53:40.922Z,0
2023-04-11T00:54:40.894Z,0
2023-04-11T00:55:40.895Z,0
2023-04-11T00:56:40.892Z,0
2023-04-11T00:57:40.889Z,0
2023-04-11T00:58:40.897Z,0
2023-04-11T00:59:40.896Z,0
2023-04-11T01:00:40.935Z,0
2023-04-11T01:01:40.928Z,0
2023-04-11T01:02:40.970Z,0
2023-04-11T01:03:40.940Z,0
2023-04-11T01:04:40.897Z,0
2023-04-11T01:05:40.900Z,0
2023-04-11T01:06:40.896Z,0
2023-04-11T01:07:40.912Z,0
2023-04-11T01:08:40.909Z,0
2023-04-11T01:09:40.932Z,0
2023-04-11T01:10:40.904Z,0
2023-04-11T01:11:40.904Z,0
2023-04-11T01:12:40.918Z,0
2023-04-11T01:13:40.902Z,0
2023-04-11T01:14:40.904Z,0
2023-04-11T01:15:40.904Z,0
2023-04-11T01:16:40.953Z,0
2023-04-11T01:17:40.914Z,0
2023-04-11T01:18:40.908Z,0
2023-04-11T01:19:40.907Z,0
2023-04-11T01:20:40.908Z,0
2023-04-11T01:21:40.907Z,0
2023-04-11T01:22:40.909Z,0
2023-04-11T01:23:40.907Z,0
2023-04-11T01:24:40.911Z,0
2023-04-11T01:25:40.937Z,0
2023-04-11T01:26:40.915Z,0
2023-04-11T01:27:40.910Z,0
2023-04-11T01:28:40.911Z,0
2023-04-11T01:29:40.923Z,0
2023-04-11T01:30:40.947Z,0
2023-04-11T01:31:40.930Z,0
2023-04-11T01:32:40.962Z,0
2023-04-11T01:33:40.918Z,0
2023-04-11T01:34:40.918Z,0
2023-04-11T01:35:40.923Z,0
2023-04-11T01:36:40.924Z,0
2023-04-11T01:37:40.912Z,0
2023-04-11T01:38:40.932Z,0
2023-04-11T01:39:40.924Z,0
2023-04-11T01:40:40.913Z,0
2023-04-11T01:41:40.942Z,0
2023-04-11T01:42:40.915Z,0
2023-04-11T01:43:40.911Z,0
2023-04-11T01:44:40.913Z,0
2023-04-11T01:45:40.919Z,0
2023-04-11T01:46:40.916Z,0
2023-04-11T01:47:40.994Z,0
2023-04-11T01:48:41.024Z,0
2023-04-11T01:49:40.919Z,0
2023-04-11T01:50:40.911Z,0
2023-04-11T01:51:40.917Z,0
2023-04-11T01:52:40.926Z,0
2023-04-11T01:53:40.914Z,0
2023-04-11T01:54:40.914Z,0
2023-04-11T01:55:40.914Z,0
2023-04-11T01:56:40.915Z,0
2023-04-11T01:57:40.944Z,0
2023-04-11T01:58:40.915Z,0
2023-04-11T01:59:40.917Z,0
2023-04-11T02:00:40.912Z,0
2023-04-11T02:01:40.965Z,0
2023-04-11T02:02:41.029Z,0
2023-04-11T02:03:40.962Z,0
2023-04-11T02:04:40.917Z,0
2023-04-11T02:05:40.917Z,0
2023-04-11T02:06:40.921Z,0
2023-04-11T02:07:40.919Z,0
2023-04-11T02:08:40.917Z,0
2023-04-11T02:09:40.919Z,0
2023-04-11T02:10:40.916Z,0
2023-04-11T02:11:40.922Z,0
2023-04-11T02:12:40.917Z,0
2023-04-11T02:13:40.946Z,0
2023-04-11T02:14:40.919Z,0
2023-04-11T02:15:40.929Z,0
2023-04-11T02:16:40.924Z,0
2023-04-11T02:17:40.938Z,0
2023-04-11T02:18:40.923Z,0
2023-04-11T02:19:40.925Z,0
2023-04-11T02:20:40.931Z,0
2023-04-11T02:21:40.924Z,0
2023-04-11T02:22:40.945Z,0
2023-04-11T02:23:40.931Z,0
2023-04-11T02:24:40.924Z,0
2023-04-11T02:25:40.927Z,0
2023-04-11T02:26:40.920Z,0
2023-04-11T02:27:40.943Z,0
2023-04-11T02:28:40.931Z,0
2023-04-11T02:29:40.958Z,0
2023-04-11T02:30:41.008Z,0
2023-04-11T02:31:41.124Z,0
2023-04-11T02:32:40.946Z,0
2023-04-11T02:33:40.947Z,0
2023-04-11T02:34:40.929Z,0
2023-04-11T02:35:40.986Z,0
2023-04-11T02:36:40.924Z,0
2023-04-11T02:37:40.921Z,0
2023-04-11T02:38:40.924Z,0
2023-04-11T02:39:40.930Z,0
2023-04-11T02:40:40.928Z,0
2023-04-11T02:41:40.927Z,0
2023-04-11T02:42:40.940Z,0
2023-04-11T02:43:40.923Z,0
2023-04-11T02:44:40.928Z,0
2023-04-11T02:45:40.954Z,0
2023-04-11T02:46:40.949Z,0
2023-04-11T02:47:40.950Z,0
2023-04-11T02:48:40.939Z,0
2023-04-11T02:49:40.929Z,0
2023-04-11T02:50:40.993Z,0
2023-04-11T02:51:40.933Z,0
2023-04-11T02:52:40.929Z,0
2023-04-11T02:53:40.931Z,0
2023-04-11T02:54:40.931Z,0
2023-04-11T02:55:40.929Z,0
2023-04-11T02:56:40.930Z,0
2023-04-11T02:57:40.931Z,0
2023-04-11T02:58:40.930Z,0
2023-04-11T02:59:40.932Z,0
2023-04-11T03:00:40.932Z,0
2023-04-11T03:01:41.074Z,0
2023-04-11T03:02:41.106Z,0
2023-04-11T03:03:40.978Z,0
2023-04-11T03:04:40.957Z,0
2023-04-11T03:05:40.931Z,0
2023-04-11T03:06:40.942Z,0
2023-04-11T03:07:40.935Z,0
2023-04-11T03:08:40.936Z,0
2023-04-11T03:09:40.930Z,0
2023-04-11T03:10:40.933Z,0
2023-04-11T03:11:40.936Z,0
2023-04-11T03:12:40.937Z,0
2023-04-11T03:13:40.945Z,0
2023-04-11T03:14:40.940Z,0
2023-04-11T03:15:40.948Z,0
2023-04-11T03:16:40.945Z,0
2023-04-11T03:17:40.979Z,0
2023-04-11T03:18:40.936Z,0
2023-04-11T03:19:40.941Z,0
2023-04-11T03:20:40.940Z,0
2023-04-11T03:21:40.939Z,0
2023-04-11T03:22:40.942Z,0
2023-04-11T03:23:40.941Z,0
2023-04-11T03:24:40.939Z,0
2023-04-11T03:25:40.951Z,0
2023-04-11T03:26:40.963Z,0
2023-04-11T03:27:41.010Z,0
2023-04-11T03:28:40.951Z,0
2023-04-11T03:29:40.949Z,0
2023-04-11T03:30:40.945Z,0
2023-04-11T03:31:40.970Z,0
2023-04-11T03:32:40.997Z,0
2023-04-11T03:33:40.976Z,0
2023-04-11T03:34:40.947Z,0
2023-04-11T03:35:40.979Z,0
2023-04-11T03:36:40.950Z,0
2023-04-11T03:37:40.947Z,0
2023-04-11T03:38:40.952Z,0
2023-04-11T03:39:40.951Z,0
2023-04-11T03:40:40.963Z,0
2023-04-11T03:41:40.950Z,0
2023-04-11T03:42:40.952Z,0
2023-04-11T03:43:40.951Z,0
2023-04-11T03:44:40.956Z,0
2023-04-11T03:45:40.953Z,0
2023-04-11T03:46:40.953Z,0
2023-04-11T03:47:41.005Z,0
2023-04-11T03:48:40.950Z,0
2023-04-11T03:49:40.995Z,0
2023-04-11T03:50:40.962Z,0
2023-04-11T03:51:40.957Z,0
2023-04-11T03:52:40.965Z,0
2023-04-11T03:53:40.966Z,0
2023-04-11T03:54:40.957Z,0
2023-04-11T03:55:40.956Z,0
2023-04-11T03:56:40.960Z,0
2023-04-11T03:57:40.959Z,0
2023-04-11T03:58:40.964Z,0
2023-04-11T03:59:40.957Z,0
2023-04-11T04:00:40.962Z,0
2023-04-11T04:01:40.992Z,0
2023-04-11T04:02:41.068Z,0
2023-04-11T04:03:41.146Z,0
2023-04-11T04:04:41.039Z,0
2023-04-11T04:05:40.981Z,0
2023-04-11T04:06:40.967Z,0
2023-04-11T04:07:40.957Z,0
2023-04-11T04:08:40.956Z,0
2023-04-11T04:09:40.960Z,0
2023-04-11T04:10:40.963Z,0
2023-04-11T04:11:40.960Z,0
2023-04-11T04:12:40.964Z,0
2023-04-11T04:13:40.963Z,0
2023-04-11T04:14:40.965Z,0
2023-04-11T04:15:40.974Z,0
2023-04-11T04:16:40.974Z,0
2023-04-11T04:17:40.976Z,0
2023-04-11T04:18:40.964Z,0
2023-04-11T04:19:40.961Z,2
2023-04-11T04:20:40.962Z,2
2023-04-11T04:21:40.986Z,2
2023-04-11T04:22:40.966Z,2
2023-04-11T04:23:40.964Z,2
2023-04-11T04:24:40.964Z,4
2023-04-11T04:25:40.980Z,4
2023-04-11T04:26:40.968Z,4
2023-04-11T04:27:40.968Z,6
2023-04-11T04:28:40.965Z,6
2023-04-11T04:29:40.971Z,6
2023-04-11T04:30:40.972Z,6
2023-04-11T04:31:41.016Z,6
2023-04-11T04:32:41.000Z,8
2023-04-11T04:33:40.976Z,8
2023-04-11T04:34:40.988Z,8
2023-04-11T04:35:41.000Z,8
2023-04-11T04:36:40.975Z,8
2023-04-11T04:37:41.009Z,11
2023-04-11T04:38:40.977Z,11
2023-04-11T04:39:40.990Z,11
2023-04-11T04:40:40.976Z,11
2023-04-11T04:41:40.975Z,11
2023-04-11T04:42:40.977Z,21
2023-04-11T04:43:40.977Z,21
2023-04-11T04:44:40.979Z,21
2023-04-11T04:45:41.003Z,21
2023-04-11T04:46:40.986Z,21
2023-04-11T04:47:40.999Z,29
2023-04-11T04:48:40.976Z,29
2023-04-11T04:49:40.982Z,29
2023-04-11T04:50:40.976Z,29
2023-04-11T04:51:40.980Z,29
2023-04-11T04:52:40.980Z,46
2023-04-11T04:53:41.058Z,46
2023-04-11T04:54:40.992Z,46
2023-04-11T04:55:40.977Z,46
2023-04-11T04:56:40.994Z,46
2023-04-11T04:57:40.978Z,60
2023-04-11T04:58:40.982Z,60
2023-04-11T04:59:40.982Z,60
2023-04-11T05:00:40.984Z,60
2023-04-11T05:01:41.030Z,60
2023-04-11T05:02:41.107Z,75
2023-04-11T05:03:41.018Z,75
2023-04-11T05:04:40.992Z,75
2023-04-11T05:05:40.981Z,75
2023-04-11T05:06:40.986Z,75
2023-04-11T05:07:40.983Z,109
2023-04-11T05:08:40.988Z,109
2023-04-11T05:09:41.009Z,109
2023-04-11T05:10:40.984Z,109
2023-04-11T05:11:40.986Z,109
2023-04-11T05:12:40.996Z,160
2023-04-11T05:13:40.987Z,160
2023-04-11T05:14:40.988Z,160
2023-04-11T05:15:40.990Z,160
2023-04-11T05:16:41.023Z,160
2023-04-11T05:17:41.044Z,155
2023-04-11T05:18:40.992Z,155
2023-04-11T05:19:41.010Z,155
2023-04-11T05:20:40.997Z,155
2023-04-11T05:21:40.993Z,155
2023-04-11T05:22:40.989Z,198
2023-04-11T05:23:40.990Z,198
2023-04-11T05:24:40.995Z,198
2023-04-11T05:25:41.018Z,198
2023-04-11T05:26:41.003Z,198
2023-04-11T05:27:40.997Z,226
2023-04-11T05:28:40.993Z,226
2023-04-11T05:29:40.991Z,226
2023-04-11T05:30:41.010Z,226
2023-04-11T05:31:40.987Z,226
2023-04-11T05:32:41.017Z,264
2023-04-11T05:33:40.993Z,264
2023-04-11T05:34:40.998Z,264
2023-04-11T05:35:41.018Z,264
2023-04-11T05:36:40.996Z,264
2023-04-11T05:37:41.001Z,285
2023-04-11T05:38:40.994Z,285
2023-04-11T05:39:41.004Z,285
2023-04-11T05:40:40.998Z,285
2023-04-11T05:41:41.034Z,285
2023-04-11T05:42:40.998Z,338
2023-04-11T05:43:41.001Z,338
2023-04-11T05:44:40.997Z,338
2023-04-11T05:45:41.012Z,338
2023-04-11T05:46:41.008Z,338
2023-04-11T05:47:41.025Z,433
2023-04-11T05:48:41.004Z,433
2023-04-11T05:49:41.001Z,433
2023-04-11T05:50:41.019Z,433
2023-04-11T05:51:41.053Z,433
2023-04-11T05:52:41.004Z,513
2023-04-11T05:53:41.005Z,513
2023-04-11T05:54:41.009Z,513
2023-04-11T05:55:41.006Z,513
2023-04-11T05:56:41.008Z,513
2023-04-11T05:57:41.034Z,484
2023-04-11T05:58:41.006Z,484
2023-04-11T05:59:41.012Z,484
2023-04-11T06:00:41.016Z,484
2023-04-11T06:01:41.030Z,484
2023-04-11T06:02:41.171Z,349
2023-04-11T06:03:41.126Z,349
2023-04-11T06:04:41.199Z,349
2023-04-11T06:05:41.007Z,349
2023-04-11T06:06:41.009Z,349
2023-04-11T06:07:41.009Z,297
2023-04-11T06:08:41.019Z,297
2023-04-11T06:09:41.013Z,297
2023-04-11T06:10:41.023Z,297
2023-04-11T06:11:41.013Z,297
2023-04-11T06:12:41.009Z,316
2023-04-11T06:13:41.034Z,316
2023-04-11T06:14:41.006Z,316
2023-04-11T06:15:41.034Z,316
2023-04-11T06:16:41.006Z,316
2023-04-11T06:17:41.012Z,474
2023-04-11T06:18:41.010Z,474
2023-04-11T06:19:41.012Z,474
2023-04-11T06:20:41.013Z,474
2023-04-11T06:21:41.007Z,474
2023-04-11T06:22:41.013Z,623
2023-04-11T06:23:41.017Z,623
2023-04-11T06:24:41.030Z,623
2023-04-11T06:25:41.013Z,655
2023-04-11T06:26:41.016Z,651
2023-04-11T06:27:41.016Z,651
2023-04-11T06:28:41.011Z,651
2023-04-11T06:29:41.035Z,651
2023-04-11T06:30:41.013Z,651
2023-04-11T06:31:41.049Z,515
2023-04-11T06:32:41.016Z,515
2023-04-11T06:33:41.011Z,515
2023-04-11T06:34:41.020Z,515
2023-04-11T06:35:41.050Z,515
2023-04-11T06:36:41.020Z,486
2023-04-11T06:37:41.018Z,486
2023-04-11T06:38:41.020Z,486
2023-04-11T06:39:41.026Z,486
2023-04-11T06:40:41.027Z,486
2023-04-11T06:41:41.022Z,486
2023-04-11T06:42:41.028Z,486
2023-04-11T06:43:41.024Z,486
2023-04-11T06:44:41.082Z,486
2023-04-11T06:45:41.063Z,486
2023-04-11T06:46:41.094Z,469
2023-04-11T06:47:41.063Z,469
2023-04-11T06:48:41.026Z,469
2023-04-11T06:49:41.031Z,469
2023-04-11T06:50:41.025Z,469
2023-04-11T06:51:41.036Z,507
2023-04-11T06:52:41.036Z,507
2023-04-11T06:53:41.028Z,507
2023-04-11T06:54:41.051Z,507
2023-04-11T06:55:41.027Z,507
2023-04-11T06:56:41.034Z,600
2023-04-11T06:57:41.033Z,600
2023-04-11T06:59:45.283Z,600
2023-04-11T07:00:45.320Z,600
2023-04-11T07:01:45.344Z,616
2023-04-11T07:02:45.475Z,616
2023-04-11T07:03:45.359Z,616
2023-04-11T07:04:45.373Z,616
2023-04-11T07:05:45.297Z,616
2023-04-11T07:06:45.296Z,624
2023-04-11T07:07:45.304Z,624
2023-04-11T07:08:45.294Z,624
2023-04-11T07:09:45.303Z,624
2023-04-11T07:10:45.309Z,624
2023-04-11T07:11:45.305Z,662
2023-04-11T07:12:45.306Z,662
2023-04-11T07:13:45.301Z,662
2023-04-11T07:14:45.308Z,662
2023-04-11T07:15:45.340Z,662
2023-04-11T07:16:45.524Z,745
2023-04-11T07:17:45.321Z,745
2023-04-11T07:18:45.310Z,745
2023-04-11T07:19:45.308Z,745
2023-04-11T07:20:45.310Z,745
2023-04-11T07:21:45.321Z,784
2023-04-11T07:22:45.321Z,784
2023-04-11T07:23:45.316Z,784
2023-04-11T07:24:45.320Z,784
2023-04-11T07:25:45.319Z,784
2023-04-11T07:26:45.320Z,779
2023-04-11T07:27:45.318Z,779
2023-04-11T07:28:45.323Z,779
2023-04-11T07:29:45.326Z,779
2023-04-11T07:30:45.327Z,779
2023-04-11T07:31:45.444Z,755
2023-04-11T07:32:45.378Z,755
2023-04-11T07:33:45.332Z,755
2023-04-11T07:34:45.329Z,755
2023-04-11T07:35:45.367Z,755
2023-04-11T07:36:45.332Z,823
2023-04-11T07:37:45.331Z,823
2023-04-11T07:38:45.336Z,823
2023-04-11T07:39:45.326Z,823
2023-04-11T07:40:45.333Z,823
2023-04-11T07:41:45.334Z,940
2023-04-11T07:42:45.333Z,940
2023-04-11T07:43:45.333Z,940
2023-04-11T07:44:45.331Z,940
2023-04-11T07:45:45.354Z,940
2023-04-11T07:46:45.356Z,970
2023-04-11T07:47:45.366Z,970
2023-04-11T07:48:45.370Z,970
2023-04-11T07:49:45.331Z,970
2023-04-11T07:50:45.342Z,970
2023-04-11T07:51:45.335Z,1090
2023-04-11T07:52:45.337Z,1090
2023-04-11T07:53:45.339Z,1090
2023-04-11T07:54:45.336Z,1090
2023-04-11T07:55:45.340Z,1090
2023-04-11T07:56:45.339Z,1245
2023-04-11T07:57:45.339Z,1245
2023-04-11T07:58:45.344Z,1245
2023-04-11T07:59:45.342Z,1245
2023-04-11T08:00:45.339Z,1245
2023-04-11T08:01:45.405Z,1324
2023-04-11T08:02:45.396Z,1324
2023-04-11T08:03:45.392Z,1324
2023-04-11T08:04:45.456Z,1324
2023-04-11T08:05:45.347Z,1324
2023-04-11T08:06:45.360Z,1488
2023-04-11T08:07:45.344Z,1488
2023-04-11T08:08:45.349Z,1488
2023-04-11T08:09:45.348Z,1488
2023-04-11T08:10:45.362Z,1488
2023-04-11T08:11:45.351Z,1796
2023-04-11T08:12:45.358Z,1796
2023-04-11T08:13:45.387Z,1796
2023-04-11T08:14:45.357Z,1796
2023-04-11T08:15:45.358Z,1796
2023-04-11T08:16:45.375Z,2017
2023-04-11T08:17:45.395Z,2017
2023-04-11T08:18:45.357Z,2017
2023-04-11T08:19:45.362Z,2017
2023-04-11T08:20:45.384Z,2017
2023-04-11T08:21:45.365Z,2973
2023-04-11T08:22:45.366Z,2973
2023-04-11T08:23:46.096Z,2973
2023-04-11T08:24:45.373Z,2973
2023-04-11T08:25:45.367Z,2973
2023-04-11T08:26:45.367Z,2751
2023-04-11T08:27:45.366Z,2751
2023-04-11T08:28:45.368Z,2751
2023-04-11T08:29:45.369Z,2751
2023-04-11T08:30:45.396Z,2751
2023-04-11T08:31:45.372Z,2386
2023-04-11T08:32:45.382Z,2386
2023-04-11T08:33:45.372Z,2386
2023-04-11T08:34:45.451Z,2372
2023-04-11T08:35:45.394Z,2372
2023-04-11T08:36:45.401Z,2372
2023-04-11T08:37:45.376Z,2372
2023-04-11T08:38:45.378Z,2372
2023-04-11T08:39:45.380Z,2685
2023-04-11T08:40:45.378Z,2685
2023-04-11T08:41:45.381Z,2685
2023-04-11T08:42:45.381Z,2685
2023-04-11T08:43:45.381Z,2685
2023-04-11T08:44:45.383Z,2592
2023-04-11T08:45:45.397Z,2592
2023-04-11T08:46:45.393Z,2592
2023-04-11T08:47:46.058Z,2592
2023-04-11T08:48:45.599Z,2592
2023-04-11T08:49:45.384Z,1941
2023-04-11T08:50:45.389Z,1941
2023-04-11T08:51:45.399Z,1941
2023-04-11T08:52:45.418Z,1941
2023-04-11T08:53:45.389Z,1941
2023-04-11T08:54:45.394Z,1663
2023-04-11T08:55:45.412Z,1663
2023-04-11T08:56:45.406Z,1663
2023-04-11T08:57:45.407Z,1663
2023-04-11T08:58:45.395Z,1663
2023-04-11T08:59:45.399Z,1411
2023-04-11T09:00:45.397Z,1411
2023-04-11T09:01:45.445Z,1411
2023-04-11T09:02:45.435Z,1411
2023-04-11T09:03:45.416Z,1411
2023-04-11T09:04:45.436Z,1546
2023-04-11T09:05:45.401Z,1546
2023-04-11T09:06:45.396Z,1546
2023-04-11T09:07:45.405Z,1546
2023-04-11T09:08:45.419Z,1546
2023-04-11T09:09:45.403Z,1720
2023-04-11T09:10:45.496Z,1720
2023-04-11T09:11:45.404Z,1720
2023-04-11T09:12:45.403Z,1720
2023-04-11T09:13:45.402Z,1720
2023-04-11T09:14:45.412Z,1735
2023-04-11T09:15:45.424Z,1735
2023-04-11T09:16:45.408Z,1735
2023-04-11T09:17:45.421Z,1735
2023-04-11T09:18:45.406Z,1735
2023-04-11T09:19:47.656Z,1962
2023-04-11T09:20:45.415Z,1962
2023-04-11T09:21:45.424Z,1962
2023-04-11T09:22:45.418Z,1962
2023-04-11T09:23:45.415Z,1962
2023-04-11T09:24:45.447Z,2553
2023-04-11T09:25:45.420Z,2553
2023-04-11T09:26:45.417Z,2847
2023-04-11T09:27:45.433Z,2847
2023-04-11T09:28:45.425Z,2847
2023-04-11T09:29:45.439Z,2847
2023-04-11T09:30:45.423Z,2847
2023-04-11T09:31:45.466Z,2314
2023-04-11T09:32:45.433Z,2314
2023-04-11T09:33:45.425Z,2314
2023-04-11T09:34:45.430Z,2650
2023-04-11T09:35:45.437Z,2650
2023-04-11T09:36:45.432Z,2650
2023-04-11T09:37:45.429Z,2650
2023-04-11T09:38:45.431Z,2650
2023-04-11T09:39:45.437Z,2989
2023-04-11T09:40:45.467Z,2989
2023-04-11T09:41:45.448Z,2936
2023-04-11T09:42:45.445Z,2936
2023-04-11T09:43:45.443Z,2578
2023-04-11T09:44:45.439Z,2492
2023-04-11T09:45:53.910Z,2492
2023-04-11T09:46:45.458Z,2492
2023-04-11T09:47:45.466Z,2492
2023-04-11T09:48:47.068Z,2492
2023-04-11T09:49:45.439Z,1936
2023-04-11T09:50:45.444Z,1936
2023-04-11T09:51:45.446Z,1936
2023-04-11T09:52:45.442Z,1936
2023-04-11T09:53:45.445Z,1936
2023-04-11T09:54:45.442Z,2040
2023-04-11T09:55:45.442Z,2003
2023-04-11T09:56:45.472Z,2003
2023-04-11T09:57:45.444Z,2003
2023-04-11T09:58:45.445Z,2003
2023-04-11T09:59:45.446Z,2003
2023-04-11T10:00:45.445Z,1795
2023-04-11T10:01:45.535Z,1795
2023-04-11T10:02:45.553Z,1795
2023-04-11T10:03:45.480Z,1795
2023-04-11T10:04:45.481Z,1795
2023-04-11T10:05:45.452Z,1779
2023-04-11T10:06:45.465Z,1740
2023-04-11T10:07:45.453Z,1707
2023-04-11T10:08:45.452Z,1707
2023-04-11T10:09:45.456Z,1707
2023-04-11T10:10:45.456Z,1707
2023-04-11T10:11:45.455Z,1707
2023-04-11T10:12:45.481Z,1858
2023-04-11T10:13:45.456Z,1858
2023-04-11T10:14:45.458Z,1858
2023-04-11T10:15:45.464Z,1858
2023-04-11T10:16:45.501Z,1858
2023-04-11T10:17:45.482Z,1821
2023-04-11T10:18:45.466Z,1726
2023-04-11T10:19:45.464Z,1649
2023-04-11T10:20:45.462Z,1649
2023-04-11T10:21:45.465Z,1649
2023-04-11T10:22:45.462Z,1477
2023-04-11T10:23:45.465Z,1477
2023-04-11T10:24:45.466Z,1540
2023-04-11T10:25:45.465Z,1557
2023-04-11T10:26:45.493Z,1557
2023-04-11T10:27:45.467Z,1557
2023-04-11T10:28:45.491Z,1557
2023-04-11T10:29:45.466Z,1557
2023-04-11T10:30:45.471Z,1557
2023-04-11T10:31:45.526Z,1711
2023-04-11T10:32:45.485Z,1711
2023-04-11T10:33:45.470Z,1711
2023-04-11T10:34:45.476Z,1711
2023-04-11T10:35:45.473Z,1711
2023-04-11T10:36:45.477Z,1828
2023-04-11T10:37:45.478Z,1846
2023-04-11T10:38:45.480Z,1846
2023-04-11T10:39:45.478Z,1846
2023-04-11T10:40:45.473Z,1846
2023-04-11T10:41:45.478Z,1846
2023-04-11T10:42:45.482Z,1940
2023-04-11T10:43:45.511Z,1940
2023-04-11T10:44:45.519Z,1940
2023-04-11T10:45:45.496Z,1940
2023-04-11T10:46:45.520Z,1940
2023-04-11T10:47:45.490Z,1848
2023-04-11T10:48:45.478Z,1848
2023-04-11T10:49:46.144Z,1848
2023-04-11T10:50:45.482Z,1848
2023-04-11T10:51:45.487Z,1848
2023-04-11T10:52:45.486Z,1889
2023-04-11T10:53:45.483Z,1889
2023-04-11T10:54:45.485Z,1889
2023-04-11T10:55:45.498Z,1889
2023-04-11T10:56:45.490Z,1889
2023-04-11T10:57:45.487Z,1873
2023-04-11T10:58:45.486Z,1873
2023-04-11T10:59:45.491Z,1873
2023-04-11T11:00:45.528Z,1672
2023-04-11T11:01:52.283Z,1582
2023-04-11T11:02:45.614Z,1539
2023-04-11T11:03:45.613Z,1539
2023-04-11T11:04:45.558Z,1539
2023-04-11T11:05:45.484Z,1539
2023-04-11T11:06:47.645Z,1539
2023-04-11T11:07:45.501Z,1539
2023-04-11T11:08:45.488Z,1476
2023-04-11T11:09:45.488Z,1454
2023-04-11T11:10:45.495Z,1454
2023-04-11T11:11:45.491Z,1454
2023-04-11T11:12:45.487Z,1454
2023-04-11T11:13:45.493Z,1454
2023-04-11T11:14:45.486Z,1355
2023-04-11T11:15:45.491Z,1355
2023-04-11T11:16:45.527Z,1355
2023-04-11T11:17:45.537Z,1355
2023-04-11T11:18:45.487Z,1355
2023-04-11T11:19:45.499Z,1021
2023-04-11T11:20:45.495Z,1021
2023-04-11T11:21:45.487Z,1021
2023-04-11T11:22:45.493Z,1021
2023-04-11T11:23:45.491Z,1021
2023-04-11T11:24:45.499Z,812
2023-04-11T11:25:45.501Z,812
2023-04-11T11:26:45.484Z,812
2023-04-11T11:27:45.494Z,812
2023-04-11T11:28:45.490Z,812
2023-04-11T11:29:45.488Z,767
2023-04-11T11:30:45.489Z,767
2023-04-11T11:31:45.621Z,767
2023-04-11T11:32:45.538Z,773
2023-04-11T11:33:45.494Z,738
2023-04-11T11:34:45.491Z,774
2023-04-11T11:35:45.491Z,822
2023-04-11T11:36:45.511Z,787
2023-04-11T11:37:45.494Z,787
2023-04-11T11:38:45.500Z,728
2023-04-11T11:39:45.497Z,728
2023-04-11T11:40:45.505Z,728
2023-04-11T11:41:45.494Z,728
2023-04-11T11:42:45.499Z,728
2023-04-11T11:43:45.503Z,561
2023-04-11T11:44:45.499Z,561
2023-04-11T11:45:45.522Z,561
2023-04-11T11:46:45.583Z,561
2023-04-11T11:47:45.541Z,561
2023-04-11T11:48:45.529Z,491
2023-04-11T11:49:45.595Z,491
2023-04-11T11:50:45.502Z,491
2023-04-11T11:51:45.501Z,491
2023-04-11T11:52:45.507Z,491
2023-04-11T11:53:45.506Z,609
2023-04-11T11:54:45.529Z,609
2023-04-11T11:55:45.513Z,609
2023-04-11T11:56:45.510Z,609
2023-04-11T11:57:45.525Z,609
2023-04-11T11:58:45.522Z,589
2023-04-11T11:59:45.513Z,589
2023-04-11T12:00:45.514Z,589
2023-04-11T12:01:45.528Z,589
2023-04-11T12:02:45.688Z,589
2023-04-11T12:03:45.668Z,736
2023-04-11T12:04:45.741Z,736
2023-04-11T12:05:45.520Z,736
2023-04-11T12:06:45.518Z,736
2023-04-11T12:07:45.521Z,736
2023-04-11T12:08:46.372Z,776
2023-04-11T12:09:45.522Z,776
2023-04-11T12:10:45.518Z,776
2023-04-11T12:11:45.519Z,776
2023-04-11T12:12:53.048Z,776
2023-04-11T12:13:45.522Z,729
2023-04-11T12:14:45.529Z,729
2023-04-11T12:15:45.541Z,729
2023-04-11T12:16:45.526Z,729
2023-04-11T12:17:45.529Z,729
2023-04-11T12:18:45.526Z,659
2023-04-11T12:19:45.524Z,659
2023-04-11T12:20:45.565Z,659
2023-04-11T12:21:45.535Z,659
2023-04-11T12:22:45.527Z,659
2023-04-11T12:23:45.528Z,744
2023-04-11T12:24:45.526Z,744
2023-04-11T12:25:45.530Z,744
2023-04-11T12:27:02.705Z,744
2023-04-11T12:27:47.067Z,744
2023-04-11T12:28:45.529Z,632
2023-04-11T12:29:45.533Z,632
2023-04-11T12:30:45.555Z,632
2023-04-11T12:31:45.995Z,632
2023-04-11T12:32:45.580Z,632
2023-04-11T12:33:45.535Z,641
2023-04-11T12:34:45.542Z,641
2023-04-11T12:35:45.541Z,641
2023-04-11T12:36:45.624Z,641
2023-04-11T12:37:45.542Z,641
2023-04-11T12:38:45.545Z,633
2023-04-11T12:39:45.545Z,633
2023-04-11T12:40:45.550Z,633
2023-04-11T12:41:45.548Z,633
2023-04-11T12:42:55.633Z,633
2023-04-11T12:43:45.551Z,663
2023-04-11T12:44:45.550Z,663
2023-04-11T12:45:45.552Z,663
2023-04-11T12:46:45.565Z,663
2023-04-11T12:47:45.560Z,663
2023-04-11T12:48:45.551Z,683
2023-04-11T12:49:45.551Z,683
2023-04-11T12:50:45.559Z,683
2023-04-11T12:51:45.552Z,683
2023-04-11T12:52:45.598Z,683
2023-04-11T12:53:45.551Z,818
2023-04-11T12:54:45.556Z,818
2023-04-11T12:55:45.664Z,818
2023-04-11T12:56:45.555Z,818
2023-04-11T12:57:45.565Z,818
2023-04-11T12:58:45.558Z,858
2023-04-11T12:59:45.557Z,838
2023-04-11T13:00:45.564Z,838
2023-04-11T13:01:45.632Z,838
2023-04-11T13:02:45.878Z,838
2023-04-11T13:03:45.651Z,838
2023-04-11T13:04:45.723Z,683
2023-04-11T13:05:45.561Z,683
2023-04-11T13:06:45.562Z,683
2023-04-11T13:07:45.799Z,683
2023-04-11T13:08:45.609Z,683
2023-04-11T13:09:45.568Z,697
2023-04-11T13:10:45.565Z,697
2023-04-11T13:11:45.571Z,697
2023-04-11T13:12:45.964Z,697
2023-04-11T13:13:45.567Z,697
2023-04-11T13:14:45.568Z,585
2023-04-11T13:15:45.566Z,585
2023-04-11T13:16:45.605Z,585
2023-04-11T13:17:45.790Z,585
2023-04-11T13:18:45.572Z,585
2023-04-11T13:19:45.575Z,513
2023-04-11T13:20:45.573Z,513
2023-04-11T13:21:45.576Z,513
2023-04-11T13:22:45.577Z,513
2023-04-11T13:23:45.580Z,513
2023-04-11T13:24:45.602Z,458
2023-04-11T13:25:45.581Z,458
2023-04-11T13:26:45.587Z,458
2023-04-11T13:27:45.580Z,458
2023-04-11T13:28:45.583Z,458
2023-04-11T13:29:45.583Z,461
2023-04-11T13:30:45.588Z,461
2023-04-11T13:31:45.616Z,461
2023-04-11T13:32:45.640Z,461
2023-04-11T13:33:45.584Z,461
2023-04-11T13:34:45.590Z,520
2023-04-11T13:35:45.590Z,520
2023-04-11T13:36:45.629Z,520
2023-04-11T13:37:45.592Z,520
2023-04-11T13:38:45.609Z,520
2023-04-11T13:39:45.591Z,559
2023-04-11T13:40:45.619Z,559
2023-04-11T13:41:45.596Z,559
2023-04-11T13:42:45.595Z,559
2023-04-11T13:43:45.595Z,559
2023-04-11T13:44:45.592Z,455
2023-04-11T13:45:45.612Z,455
2023-04-11T13:46:45.591Z,455
2023-04-11T13:47:45.608Z,455
2023-04-11T13:48:45.593Z,455
2023-04-11T13:49:45.595Z,486
2023-04-11T13:50:45.602Z,486
2023-04-11T13:51:45.604Z,486
2023-04-11T13:52:45.600Z,486
2023-04-11T13:53:45.598Z,486
2023-04-11T13:54:45.600Z,520
2023-04-11T13:55:45.603Z,520
2023-04-11T13:56:45.626Z,520
2023-04-11T13:57:45.602Z,520
2023-04-11T13:58:45.604Z,520
2023-04-11T13:59:45.623Z,485